createdAt,value
2023-05-16T00:00:53.158Z,2.67
2023-05-16T00:03:22.505Z,3.05
2023-05-16T00:05:48.899Z,2.33
2023-05-16T00:08:15.322Z,3.25
2023-05-16T00:10:41.737Z,2.63
2023-05-16T00:13:08.109Z,4.80
2023-05-16T00:15:34.712Z,2.78
2023-05-16T00:18:03.650Z,4.63
2023-05-16T00:20:30.405Z,2.28
2023-05-16T00:23:00.979Z,4.15
2023-05-16T00:25:28.474Z,3.53
2023-05-16T00:27:54.815Z,2.30
2023-05-16T00:30:22.695Z,2.83
2023-05-16T00:32:49.342Z,3.70
2023-05-16T00:35:15.730Z,3.22
2023-05-16T00:37:42.089Z,4.50
2023-05-16T00:40:11.046Z,2.92
2023-05-16T00:42:38.170Z,6.68
2023-05-16T00:45:05.092Z,4.30
2023-05-16T00:47:31.588Z,2.85
2023-05-16T00:49:58.267Z,2.47
2023-05-16T00:52:24.849Z,3.85
2023-05-16T00:54:51.464Z,3.45
2023-05-16T00:57:18.129Z,4.97
2023-05-16T00:59:46.345Z,2.78
2023-05-16T01:02:13.230Z,2.95
2023-05-16T01:04:40.307Z,5.13
2023-05-16T01:07:06.663Z,3.58
2023-05-16T01:09:33.127Z,4.45
2023-05-16T01:12:04.940Z,5.88
2023-05-16T01:14:42.961Z,3.78
2023-05-16T01:17:19.181Z,3.50
2023-05-16T01:20:08.241Z,4.07
2023-05-16T01:22:43.779Z,2.78
2023-05-16T01:25:29.165Z,4.80
2023-05-16T01:27:56.621Z,4.57
2023-05-16T01:30:22.975Z,6.75
2023-05-16T01:32:49.356Z,2.42
2023-05-16T01:35:17.081Z,3.65
2023-05-16T01:37:59.548Z,4.60
2023-05-16T01:40:28.881Z,3.65
2023-05-16T01:42:56.315Z,3.95
2023-05-16T01:45:22.699Z,3.92
2023-05-16T01:47:52.511Z,4.63
2023-05-16T01:50:20.883Z,3.05
2023-05-16T01:52:53.980Z,7.45
2023-05-16T01:55:42.941Z,5.57
2023-05-16T01:58:10.193Z,4.03
2023-05-16T02:00:36.753Z,5.63
2023-05-16T02:03:03.247Z,3.88
2023-05-16T02:05:30.246Z,3.53
2023-05-16T02:07:57.724Z,7.30
2023-05-16T02:10:24.127Z,4.93
2023-05-16T02:12:50.943Z,5.95
2023-05-16T02:15:17.405Z,5.20
2023-05-16T02:17:43.774Z,16.10
2023-05-16T02:20:10.377Z,8.77
2023-05-16T02:22:39.363Z,4.03
2023-05-16T02:25:06.348Z,4.03
2023-05-16T02:27:32.779Z,3.47
2023-05-16T02:30:04.758Z,3.60
2023-05-16T02:32:31.917Z,4.07
2023-05-16T02:34:58.519Z,6.57
2023-05-16T02:37:25.080Z,3.55
2023-05-16T02:39:51.458Z,10.25
2023-05-16T02:42:17.816Z,5.22
2023-05-16T02:44:44.328Z,4.47
2023-05-16T02:47:13.193Z,3.20
2023-05-16T02:49:39.644Z,7.80
2023-05-16T02:52:06.162Z,3.35
2023-05-16T02:54:32.531Z,7.88
2023-05-16T02:56:58.873Z,7.22
2023-05-16T02:59:25.218Z,4.00
2023-05-16T03:01:52.086Z,5.65
2023-05-16T03:04:18.503Z,5.03
2023-05-16T03:06:44.939Z,8.48
2023-05-16T03:09:11.312Z,6.40
2023-05-16T03:11:37.792Z,2.95
2023-05-16T03:14:04.127Z,15.73
2023-05-16T03:16:30.532Z,2.85
2023-05-16T03:18:57.172Z,4.38
2023-05-16T03:21:23.787Z,5.78
2023-05-16T03:23:52.355Z,6.85
2023-05-16T03:26:18.690Z,5.53
2023-05-16T03:28:45.128Z,4.47
2023-05-16T03:31:11.558Z,3.22
2023-05-16T03:33:37.967Z,3.72
2023-05-16T03:36:05.405Z,3.75
2023-05-16T03:38:32.445Z,4.75
2023-05-16T03:41:01.590Z,3.28
2023-05-16T03:43:27.996Z,3.05
2023-05-16T03:45:54.429Z,4.47
2023-05-16T03:48:20.829Z,2.85
2023-05-16T03:50:47.802Z,3.70
2023-05-16T03:53:14.351Z,3.70
2023-05-16T03:55:40.731Z,5.15
2023-05-16T03:58:07.936Z,4.90
2023-05-16T04:00:34.568Z,4.30
2023-05-16T04:03:01.081Z,4.47
2023-05-16T04:05:27.997Z,4.13
2023-05-16T04:07:56.909Z,5.28
2023-05-16T04:10:23.358Z,3.40
2023-05-16T04:12:49.751Z,4.00
2023-05-16T04:15:16.119Z,4.80
2023-05-16T04:17:42.811Z,2.42
2023-05-16T04:20:11.815Z,3.47
2023-05-16T04:22:38.162Z,8.60
2023-05-16T04:25:04.651Z,4.15
2023-05-16T04:27:31.493Z,4.88
2023-05-16T04:29:59.346Z,4.00
2023-05-16T04:32:26.147Z,5.40
2023-05-16T04:34:54.270Z,3.28
2023-05-16T04:37:23.310Z,5.32
2023-05-16T04:39:49.660Z,4.25
2023-05-16T04:42:16.416Z,6.38
2023-05-16T04:44:44.000Z,5.72
2023-05-16T04:47:10.426Z,7.70
2023-05-16T04:49:36.870Z,2.85
2023-05-16T04:52:03.357Z,3.28
2023-05-16T04:54:29.723Z,3.40
2023-05-16T04:56:57.305Z,8.77
2023-05-16T04:59:23.651Z,3.15
2023-05-16T05:01:50.080Z,2.78
2023-05-16T05:04:17.704Z,2.80
2023-05-16T05:06:44.166Z,6.63
2023-05-16T05:09:11.030Z,6.47
2023-05-16T05:11:37.405Z,8.80
2023-05-16T05:14:03.891Z,3.05
2023-05-16T05:16:30.493Z,4.13
2023-05-16T05:18:56.931Z,6.32
2023-05-16T05:21:25.290Z,4.50
2023-05-16T05:23:51.635Z,3.75
2023-05-16T05:26:18.447Z,7.65
2023-05-16T05:28:53.857Z,5.28
2023-05-16T05:31:28.123Z,4.22
2023-05-16T05:33:54.877Z,7.18
2023-05-16T05:36:21.234Z,4.22
2023-05-16T05:38:47.593Z,4.30
2023-05-16T05:41:14.268Z,5.28
2023-05-16T05:43:40.728Z,4.65
2023-05-16T05:46:07.227Z,6.15
2023-05-16T05:48:33.714Z,4.85
2023-05-16T05:51:00.134Z,4.03
2023-05-16T05:53:28.852Z,6.22
2023-05-16T05:55:55.231Z,8.48
2023-05-16T05:58:21.739Z,7.55
2023-05-16T06:00:48.183Z,5.43
2023-05-16T06:03:14.706Z,6.35
2023-05-16T06:05:41.506Z,5.93
2023-05-16T06:08:07.958Z,6.75
2023-05-16T06:10:34.297Z,5.47
2023-05-16T06:13:00.919Z,6.78
2023-05-16T06:15:27.541Z,4.95
2023-05-16T06:17:54.222Z,9.15
2023-05-16T06:20:20.678Z,6.05
2023-05-16T06:22:47.103Z,7.25
2023-05-16T06:25:13.449Z,6.10
2023-05-16T06:27:39.835Z,7.82
2023-05-16T06:30:06.544Z,7.82
2023-05-16T06:32:32.919Z,9.65
2023-05-16T06:35:01.921Z,8.90
2023-05-16T06:37:28.293Z,9.73
2023-05-16T06:39:54.684Z,7.95
2023-05-16T06:42:21.312Z,12.68
2023-05-16T06:44:47.765Z,7.00
2023-05-16T06:47:16.879Z,9.05
2023-05-16T06:49:43.289Z,9.82
2023-05-16T06:52:12.246Z,7.18
2023-05-16T06:54:38.709Z,9.27
2023-05-16T06:57:05.457Z,7.18
2023-05-16T06:59:32.554Z,7.45
2023-05-16T07:01:59.073Z,9.23
2023-05-16T07:04:25.706Z,7.18
2023-05-16T07:06:52.097Z,8.82
2023-05-16T07:09:18.540Z,5.90
2023-05-16T07:11:44.979Z,7.32
2023-05-16T07:14:11.417Z,6.13
2023-05-16T07:16:37.975Z,6.57
2023-05-16T07:19:04.444Z,10.90
2023-05-16T07:21:33.100Z,6.47
2023-05-16T07:23:59.599Z,6.78
2023-05-16T07:26:26.675Z,6.95
2023-05-16T07:28:53.099Z,6.90
2023-05-16T07:31:19.672Z,6.28
2023-05-16T07:33:47.144Z,8.32
2023-05-16T07:36:16.955Z,7.07
2023-05-16T07:38:43.895Z,6.45
2023-05-16T07:41:10.343Z,9.82
2023-05-16T07:43:36.943Z,10.20
2023-05-16T07:46:03.660Z,7.13
2023-05-16T07:48:30.094Z,7.93
2023-05-16T07:50:56.610Z,10.85
2023-05-16T07:53:23.119Z,13.23
2023-05-16T07:55:50.066Z,8.13
2023-05-16T07:58:16.549Z,11.35
2023-05-16T08:00:43.021Z,10.27
2023-05-16T08:03:09.616Z,8.60
2023-05-16T08:05:36.081Z,9.63
2023-05-16T08:08:02.588Z,8.70
2023-05-16T08:10:29.040Z,8.88
2023-05-16T08:12:55.779Z,9.27
2023-05-16T08:15:22.595Z,7.15
2023-05-16T08:17:49.625Z,8.15
2023-05-16T08:20:16.368Z,7.60
2023-05-16T08:22:42.775Z,9.20
2023-05-16T08:25:09.260Z,7.90
2023-05-16T08:27:36.046Z,11.45
2023-05-16T08:30:03.058Z,8.75
2023-05-16T08:32:29.594Z,8.93
2023-05-16T08:34:56.160Z,8.85
2023-05-16T08:37:22.555Z,8.00
2023-05-16T08:39:55.008Z,8.88
2023-05-16T08:42:21.623Z,8.90
2023-05-16T08:44:48.081Z,6.82
2023-05-16T08:47:21.904Z,11.25
2023-05-16T08:49:48.684Z,8.40
2023-05-16T08:52:18.611Z,7.38
2023-05-16T08:54:50.355Z,6.80
2023-05-16T08:57:21.935Z,7.00
2023-05-16T08:59:48.371Z,9.98
2023-05-16T09:02:17.264Z,6.53
2023-05-16T09:04:45.212Z,7.40
2023-05-16T09:07:11.591Z,6.30
2023-05-16T09:09:37.994Z,8.85
2023-05-16T09:12:04.809Z,9.23
2023-05-16T09:14:31.245Z,11.07
2023-05-16T09:17:05.310Z,9.98
2023-05-16T09:19:42.213Z,9.93
2023-05-16T09:22:13.326Z,8.32
2023-05-16T09:24:43.182Z,7.32
2023-05-16T09:27:10.718Z,9.32
2023-05-16T09:29:37.650Z,11.60
2023-05-16T09:32:14.859Z,11.32
2023-05-16T09:34:45.700Z,9.85
2023-05-16T09:37:13.267Z,7.93
2023-05-16T09:39:41.756Z,10.95
2023-05-16T09:42:11.449Z,9.07
2023-05-16T09:44:37.992Z,9.30
2023-05-16T09:47:04.540Z,9.57
2023-05-16T09:49:31.036Z,9.18
2023-05-16T09:52:02.567Z,8.40
2023-05-16T09:54:37.367Z,7.70
2023-05-16T09:57:04.062Z,7.82
2023-05-16T09:59:31.038Z,8.65
2023-05-16T10:01:58.736Z,8.25
2023-05-16T10:04:25.796Z,11.70
2023-05-16T10:06:55.012Z,8.63
2023-05-16T10:09:22.554Z,7.65
2023-05-16T10:11:49.776Z,10.68
2023-05-16T10:14:20.216Z,7.95
2023-05-16T10:16:48.566Z,8.93
2023-05-16T10:19:16.850Z,9.55
2023-05-16T10:21:48.724Z,8.57
2023-05-16T10:24:17.557Z,8.52
2023-05-16T10:26:44.040Z,7.75
2023-05-16T10:29:10.988Z,9.07
2023-05-16T10:31:37.520Z,8.30
2023-05-16T10:34:04.054Z,8.90
2023-05-16T10:36:31.293Z,8.32
2023-05-16T10:38:58.496Z,6.88
2023-05-16T10:41:25.527Z,9.00
2023-05-16T10:43:58.409Z,7.28
2023-05-16T10:46:26.577Z,7.57
2023-05-16T10:48:55.073Z,8.30
2023-05-16T10:51:25.340Z,9.45
2023-05-16T10:53:52.098Z,7.57
2023-05-16T10:56:25.478Z,8.05
2023-05-16T10:58:53.059Z,12.88
2023-05-16T11:01:22.586Z,8.05
2023-05-16T11:04:01.650Z,8.07
2023-05-16T11:06:31.047Z,9.80
2023-05-16T11:09:06.826Z,13.85
2023-05-16T11:11:39.442Z,8.68
2023-05-16T11:14:05.930Z,10.32
2023-05-16T11:16:36.484Z,7.72
2023-05-16T11:19:07.112Z,8.07
2023-05-16T11:21:52.449Z,8.52
2023-05-16T11:24:29.498Z,14.68
2023-05-16T11:26:56.030Z,9.18
2023-05-16T11:29:22.488Z,9.00
2023-05-16T11:31:49.419Z,9.50
2023-05-16T11:34:16.323Z,10.05
2023-05-16T11:36:43.078Z,16.02
2023-05-16T11:39:10.386Z,7.70
2023-05-16T11:41:36.919Z,9.35
2023-05-16T11:44:03.380Z,8.98
2023-05-16T11:46:29.820Z,8.27
2023-05-16T11:48:56.989Z,9.30
2023-05-16T11:51:23.546Z,10.43
2023-05-16T11:53:50.096Z,10.18
2023-05-16T11:56:16.616Z,9.02
2023-05-16T11:58:43.027Z,8.43
2023-05-16T12:01:11.977Z,8.57
2023-05-16T12:03:39.313Z,7.60
2023-05-16T12:06:06.088Z,9.43
2023-05-16T12:08:32.978Z,9.57
2023-05-16T12:11:00.379Z,10.07
2023-05-16T12:13:27.024Z,10.77
2023-05-16T12:15:53.553Z,9.60
2023-05-16T12:18:26.351Z,10.40
2023-05-16T12:20:53.140Z,12.47
2023-05-16T12:23:22.957Z,10.27
2023-05-16T12:25:49.576Z,11.00
2023-05-16T12:28:16.273Z,11.68
2023-05-16T12:30:43.700Z,13.32
2023-05-16T12:33:11.139Z,12.27
2023-05-16T12:35:38.388Z,10.57
2023-05-16T12:38:08.690Z,17.45
2023-05-16T12:40:39.627Z,13.65
2023-05-16T12:43:13.537Z,10.55
2023-05-16T12:45:39.962Z,10.95
2023-05-16T12:48:12.154Z,11.07
2023-05-16T12:50:39.612Z,10.65
2023-05-16T12:53:10.599Z,9.30
2023-05-16T12:55:37.021Z,12.23
2023-05-16T12:58:03.612Z,8.90
2023-05-16T13:00:31.719Z,9.35
2023-05-16T13:03:00.883Z,8.90
2023-05-16T13:05:27.373Z,9.20
2023-05-16T13:07:56.180Z,9.02
2023-05-16T13:10:22.932Z,10.80
2023-05-16T13:12:51.453Z,8.95
2023-05-16T13:15:20.252Z,8.80
2023-05-16T13:17:48.510Z,8.23
2023-05-16T13:20:15.340Z,10.82
2023-05-16T13:22:42.962Z,8.98
2023-05-16T13:25:10.500Z,10.25
2023-05-16T13:27:37.016Z,9.98
2023-05-16T13:30:04.366Z,8.30
2023-05-16T13:32:30.854Z,6.65
2023-05-16T13:34:57.292Z,10.45
2023-05-16T13:37:24.697Z,6.15
2023-05-16T13:39:51.255Z,13.10
2023-05-16T13:42:17.660Z,13.93
2023-05-16T13:44:44.912Z,16.27
2023-05-16T13:47:11.809Z,7.50
2023-05-16T13:49:39.209Z,8.20
2023-05-16T13:52:06.303Z,8.43
2023-05-16T13:54:32.808Z,6.53
2023-05-16T13:56:59.177Z,7.97
2023-05-16T13:59:55.233Z,5.97
2023-05-16T14:02:16.899Z,4.63
2023-05-16T14:04:43.463Z,6.05
2023-05-16T14:07:09.940Z,6.60
2023-05-16T14:09:39.216Z,8.57
2023-05-16T14:12:08.676Z,4.60
2023-05-16T14:14:37.744Z,4.50
2023-05-16T14:17:04.422Z,4.15
2023-05-16T14:19:31.386Z,3.60
2023-05-16T14:22:00.820Z,4.13
2023-05-16T14:24:27.382Z,4.55
2023-05-16T14:26:58.375Z,6.50
2023-05-16T14:29:25.469Z,4.70
2023-05-16T14:31:52.185Z,4.13
2023-05-16T14:34:18.649Z,7.30
2023-05-16T14:36:45.066Z,7.28
2023-05-16T14:39:14.241Z,4.63
2023-05-16T14:41:40.650Z,4.38
2023-05-16T14:44:07.091Z,7.03
2023-05-16T14:46:33.905Z,6.13
2023-05-16T14:49:00.435Z,8.02
2023-05-16T14:51:26.852Z,7.32
2023-05-16T14:53:53.284Z,9.73
2023-05-16T14:56:26.961Z,6.43
2023-05-16T15:01:19.978Z,12.88
2023-05-16T15:03:54.507Z,7.40
2023-05-16T15:06:21.518Z,7.82
2023-05-16T15:08:47.951Z,8.57
2023-05-16T15:11:14.871Z,7.10
2023-05-16T15:13:41.345Z,6.38
2023-05-16T15:16:07.992Z,6.85
2023-05-16T15:18:34.555Z,8.57
2023-05-16T15:21:01.095Z,7.40
2023-05-16T15:23:27.547Z,5.35
2023-05-16T15:25:54.841Z,7.03
2023-05-16T15:28:22.754Z,11.23
2023-05-16T15:30:49.335Z,11.38
2023-05-16T15:33:15.769Z,13.38
2023-05-16T15:35:42.328Z,14.02
2023-05-16T15:38:08.817Z,9.32
2023-05-16T15:40:35.369Z,11.93
2023-05-16T15:43:01.787Z,9.00
2023-05-16T15:45:28.398Z,6.40
2023-05-16T15:47:55.046Z,7.55
2023-05-16T15:50:22.233Z,7.22
2023-05-16T15:52:49.059Z,11.18
2023-05-16T15:55:15.541Z,7.80
2023-05-16T15:57:43.852Z,6.65
2023-05-16T16:00:10.709Z,9.90
2023-05-16T16:02:37.279Z,8.88
2023-05-16T16:05:03.843Z,6.85
2023-05-16T16:07:30.258Z,7.57
2023-05-16T16:09:59.567Z,10.80
2023-05-16T16:12:29.377Z,8.52
2023-05-16T16:14:55.813Z,11.18
2023-05-16T16:17:22.262Z,9.32
2023-05-16T16:19:48.748Z,8.50
2023-05-16T16:22:16.201Z,9.68
2023-05-16T16:24:42.677Z,8.63
2023-05-16T16:27:09.150Z,6.55
2023-05-16T16:29:36.329Z,7.25
2023-05-16T16:32:02.743Z,6.65
2023-05-16T16:34:29.239Z,6.15
2023-05-16T16:36:55.700Z,12.57
2023-05-16T16:39:22.537Z,7.45
2023-05-16T16:41:49.756Z,7.65
2023-05-16T16:44:16.212Z,8.20
2023-05-16T16:46:42.765Z,11.13
2023-05-16T16:49:09.231Z,7.03
2023-05-16T16:51:35.831Z,9.93
2023-05-16T16:54:02.249Z,6.70
2023-05-16T16:56:30.027Z,6.25
2023-05-16T16:58:56.524Z,6.10
2023-05-16T17:01:23.136Z,6.75
2023-05-16T17:03:49.731Z,9.77
2023-05-16T17:06:16.481Z,8.93
2023-05-16T17:08:43.399Z,7.63
2023-05-16T17:11:09.849Z,8.07
2023-05-16T17:13:37.673Z,10.93
2023-05-16T17:16:06.689Z,9.55
2023-05-16T17:18:34.786Z,9.75
2023-05-16T17:21:01.604Z,7.95
2023-05-16T17:23:28.146Z,9.63
2023-05-16T17:25:54.569Z,10.20
2023-05-16T17:28:21.201Z,9.20
2023-05-16T17:30:47.737Z,11.32
2023-05-16T17:33:14.388Z,8.90
2023-05-16T17:35:41.109Z,8.98
2023-05-16T17:38:07.633Z,16.00
2023-05-16T17:40:34.116Z,8.50
2023-05-16T17:43:00.653Z,10.48
2023-05-16T17:45:29.792Z,9.88
2023-05-16T17:47:57.153Z,8.50
2023-05-16T17:50:24.008Z,10.05
2023-05-16T17:52:50.763Z,13.05
2023-05-16T17:55:17.332Z,8.80
2023-05-16T17:57:46.716Z,8.52
2023-05-16T18:00:15.086Z,10.98
2023-05-16T18:02:44.560Z,10.75
2023-05-16T18:07:38.688Z,11.77
2023-05-16T18:10:05.519Z,11.45
2023-05-16T18:12:32.017Z,13.63
2023-05-16T18:14:58.486Z,9.60
2023-05-16T18:17:24.975Z,12.77
2023-05-16T18:19:51.498Z,11.60
2023-05-16T18:22:21.018Z,13.50
2023-05-16T18:24:47.520Z,10.75
2023-05-16T18:27:16.627Z,10.07
2023-05-16T18:29:45.532Z,10.43
2023-05-16T18:32:12.304Z,10.88
2023-05-16T18:34:38.906Z,12.02
2023-05-16T18:37:06.718Z,11.20
2023-05-16T18:39:35.665Z,12.00
2023-05-16T18:42:02.272Z,10.95
2023-05-16T18:44:29.026Z,12.52
2023-05-16T18:46:57.531Z,11.65
2023-05-16T18:49:24.276Z,15.55
2023-05-16T18:51:50.729Z,11.73
2023-05-16T18:54:17.289Z,10.52
2023-05-16T18:56:43.937Z,13.18
2023-05-16T18:59:10.502Z,9.90
2023-05-16T19:01:37.171Z,12.30
2023-05-16T19:04:04.066Z,10.63
2023-05-16T19:06:33.231Z,9.52
2023-05-16T19:08:59.620Z,9.45
2023-05-16T19:11:26.705Z,9.75
2023-05-16T19:13:53.166Z,10.90
2023-05-16T19:16:19.672Z,14.13
2023-05-16T19:18:46.612Z,10.77
2023-05-16T19:21:15.799Z,10.43
2023-05-16T19:23:42.264Z,10.35
2023-05-16T19:26:08.735Z,12.15
2023-05-16T19:28:35.396Z,11.70
2023-05-16T19:31:01.885Z,12.13
2023-05-16T19:33:30.813Z,15.35
2023-05-16T19:35:59.855Z,14.10
2023-05-16T19:38:27.644Z,16.85
2023-05-16T19:40:54.580Z,12.50
2023-05-16T19:43:23.717Z,14.40
2023-05-16T19:45:50.165Z,13.23
2023-05-16T19:48:19.186Z,14.75
2023-05-16T19:50:46.115Z,15.00
2023-05-16T19:53:12.543Z,15.52
2023-05-16T19:55:39.206Z,17.02
2023-05-16T19:58:05.749Z,19.10
2023-05-16T20:00:32.186Z,17.98
2023-05-16T20:02:58.781Z,19.15
2023-05-16T20:05:25.795Z,16.45
2023-05-16T20:07:55.975Z,17.88
2023-05-16T20:10:22.554Z,20.75
2023-05-16T20:12:49.192Z,20.98
2023-05-16T20:15:16.271Z,21.52
2023-05-16T20:17:45.572Z,20.30
2023-05-16T20:20:12.075Z,26.17
2023-05-16T20:22:39.526Z,22.67
2023-05-16T20:25:06.906Z,24.20
2023-05-16T20:27:33.479Z,21.48
2023-05-16T20:30:00.004Z,23.80
2023-05-16T20:32:26.557Z,21.90
2023-05-16T20:34:53.041Z,28.00
2023-05-16T20:37:21.251Z,29.08
2023-05-16T20:39:47.626Z,25.17
2023-05-16T20:42:14.288Z,27.52
2023-05-16T20:44:41.558Z,24.90
2023-05-16T20:47:08.102Z,24.80
2023-05-16T20:49:39.149Z,24.30
2023-05-16T20:52:06.407Z,21.98
2023-05-16T20:54:33.491Z,23.05
2023-05-16T20:57:00.057Z,21.38
2023-05-16T20:59:26.523Z,20.73
2023-05-16T21:01:53.031Z,18.70
2023-05-16T21:04:19.450Z,22.83
2023-05-16T21:06:46.019Z,18.27
2023-05-16T21:09:12.558Z,17.70
2023-05-16T21:11:39.195Z,18.33
2023-05-16T21:14:05.603Z,16.60
2023-05-16T21:16:32.074Z,20.05
2023-05-16T21:19:01.438Z,17.70
2023-05-16T21:21:28.191Z,22.27
2023-05-16T21:23:55.930Z,17.00
2023-05-16T21:26:24.828Z,18.85
2023-05-16T21:28:55.464Z,16.67
2023-05-16T21:31:22.757Z,16.48
2023-05-16T21:33:52.086Z,17.80
2023-05-16T21:36:22.153Z,17.55
2023-05-16T21:38:48.617Z,15.68
2023-05-16T21:41:15.173Z,16.63
2023-05-16T21:43:41.591Z,16.02
2023-05-16T21:46:08.023Z,16.85
2023-05-16T21:48:34.605Z,16.20
2023-05-16T21:51:01.181Z,14.48
2023-05-16T21:53:27.661Z,14.40
2023-05-16T21:55:54.126Z,15.95
2023-05-16T21:58:20.643Z,17.77
2023-05-16T22:00:49.603Z,15.60
2023-05-16T22:03:21.048Z,16.63
2023-05-16T22:05:47.755Z,12.98
2023-05-16T22:08:14.206Z,14.90
2023-05-16T22:10:43.038Z,16.75
2023-05-16T22:13:09.521Z,16.25
2023-05-16T22:15:35.992Z,15.45
2023-05-16T22:18:02.746Z,12.80
2023-05-16T22:20:29.783Z,16.40
2023-05-16T22:22:56.382Z,22.55
2023-05-16T22:25:22.780Z,15.00
2023-05-16T22:27:49.241Z,17.75
2023-05-16T22:30:15.679Z,14.50
2023-05-16T22:32:42.217Z,14.70
2023-05-16T22:35:08.739Z,14.68
2023-05-16T22:37:35.170Z,14.82
2023-05-16T22:40:01.557Z,15.38
2023-05-16T22:42:31.284Z,20.00
2023-05-16T22:44:57.811Z,19.35
2023-05-16T22:47:24.272Z,15.65
2023-05-16T22:49:51.082Z,14.15
2023-05-16T22:52:17.596Z,23.30
2023-05-16T22:54:44.003Z,13.65
2023-05-16T22:57:10.410Z,14.05
2023-05-16T22:59:36.865Z,15.40
2023-05-16T23:02:05.398Z,19.63
2023-05-16T23:04:31.904Z,14.60
2023-05-16T23:06:58.376Z,16.08
2023-05-16T23:09:24.880Z,14.10
2023-05-16T23:11:51.378Z,13.30
2023-05-16T23:14:17.811Z,18.92
2023-05-16T23:16:44.225Z,15.68
2023-05-16T23:19:10.848Z,17.73
2023-05-16T23:21:37.552Z,22.50
2023-05-16T23:24:04.068Z,20.40
2023-05-16T23:26:31.428Z,21.13
2023-05-16T23:28:57.826Z,17.42
2023-05-16T23:31:24.253Z,14.98
2023-05-16T23:33:50.737Z,13.40
2023-05-16T23:36:17.177Z,12.90
2023-05-16T23:38:43.586Z,16.27
2023-05-16T23:41:10.034Z,14.18
2023-05-16T23:43:36.430Z,13.75
2023-05-16T23:46:02.818Z,15.35
2023-05-16T23:48:29.342Z,13.10
2023-05-16T23:50:55.785Z,14.75
2023-05-16T23:53:26.767Z,12.25
2023-05-16T23:55:53.160Z,12.90
2023-05-16T23:58:19.578Z,16.13
